createdAt,value
2022-10-01T04:02:14.004Z,99.90
2022-10-01T04:04:45.733Z,99.90
2022-10-01T04:07:17.385Z,99.90
2022-10-01T04:09:49.029Z,99.90
2022-10-01T04:12:20.672Z,99.90
2022-10-01T04:14:52.376Z,99.90
2022-10-01T04:19:57.751Z,99.90
2022-10-01T04:22:29.409Z,99.90
2022-10-01T04:25:01.070Z,99.90
2022-10-01T04:27:32.715Z,99.90
2022-10-01T04:30:05.251Z,99.90
2022-10-01T04:32:38.646Z,99.90
2022-10-01T04:35:10.293Z,99.90
2022-10-01T04:37:41.960Z,99.90
2022-10-01T04:42:45.638Z,99.90
2022-10-01T04:52:55.466Z,99.90
2022-10-01T04:55:27.099Z,99.90
2022-10-01T04:57:58.749Z,99.90
2022-10-01T05:00:30.407Z,99.90
2022-10-01T05:03:03.507Z,99.90
2022-10-01T05:05:35.288Z,99.90
2022-10-01T05:08:06.997Z,99.90
2022-10-01T05:10:38.656Z,99.90
2022-10-01T05:13:10.306Z,99.90
2022-10-01T05:15:41.940Z,99.90
2022-10-01T05:18:14.960Z,99.90
2022-10-01T05:20:46.606Z,99.90
2022-10-01T05:23:18.245Z,99.90
2022-10-01T05:25:49.926Z,99.90
2022-10-01T05:28:22.794Z,99.90
2022-10-01T05:30:54.555Z,99.90
2022-10-01T05:33:27.725Z,99.90
2022-10-01T05:35:59.369Z,99.90
2022-10-01T05:38:31.027Z,99.90
2022-10-01T05:41:02.780Z,99.90
2022-10-01T05:43:34.414Z,99.90
2022-10-01T05:46:06.120Z,99.90
2022-10-01T05:48:39.156Z,99.90
2022-10-01T05:51:10.818Z,99.90
2022-10-01T05:53:45.100Z,99.90
2022-10-01T05:56:18.731Z,99.90
2022-10-01T05:58:50.376Z,99.90
2022-10-01T06:01:22.027Z,99.90
2022-10-01T06:03:54.998Z,99.90
2022-10-01T06:06:26.813Z,99.90
2022-10-01T06:08:59.297Z,99.90
2022-10-01T06:11:31.199Z,99.90
2022-10-01T06:14:03.086Z,99.90
2022-10-01T06:16:34.785Z,99.90
2022-10-01T06:19:07.807Z,99.90
2022-10-01T06:21:39.458Z,99.90
2022-10-01T06:24:11.130Z,99.90
2022-10-01T06:26:42.787Z,99.90
2022-10-01T06:29:14.454Z,99.90
2022-10-01T06:31:46.147Z,99.90
2022-10-01T06:34:19.171Z,99.90
2022-10-01T06:36:50.829Z,99.90
2022-10-01T06:39:22.478Z,99.90
2022-10-01T06:41:54.141Z,99.90
2022-10-01T06:44:25.782Z,99.90
2022-10-01T06:46:57.441Z,99.90
2022-10-01T06:49:30.412Z,99.90
2022-10-01T06:52:02.326Z,99.90
2022-10-01T06:54:33.973Z,99.90
2022-10-01T06:57:05.622Z,99.90
2022-10-01T06:59:37.337Z,99.90
2022-10-01T07:02:11.302Z,99.90
2022-10-01T07:04:44.349Z,99.90
2022-10-01T07:07:16.029Z,99.90
2022-10-01T07:09:47.673Z,99.90
2022-10-01T07:12:19.340Z,99.90
2022-10-01T07:14:50.982Z,99.90
2022-10-01T07:17:22.693Z,99.90
2022-10-01T07:19:55.673Z,99.90
2022-10-01T07:22:27.309Z,99.90
2022-10-01T07:24:58.932Z,99.90
2022-10-01T07:27:30.605Z,99.90
2022-10-01T07:32:35.300Z,99.90
2022-10-01T07:40:12.507Z,99.90
2022-10-01T07:42:44.243Z,99.90
2022-10-01T07:45:15.952Z,99.90
2022-10-01T07:47:52.519Z,99.90
2022-10-01T07:50:25.670Z,99.90
2022-10-01T07:52:58.010Z,99.90
2022-10-01T07:55:29.661Z,99.90
2022-10-01T07:58:01.301Z,99.90
2022-10-01T08:00:33.421Z,99.90
2022-10-01T08:05:40.479Z,99.90
2022-10-01T08:08:12.248Z,99.90
2022-10-01T08:10:43.914Z,99.90
2022-10-01T08:13:16.469Z,99.90
2022-10-01T08:15:48.166Z,99.90
2022-10-01T08:18:19.916Z,99.90
2022-10-01T08:20:52.904Z,99.90
2022-10-01T08:23:24.547Z,99.90
2022-10-01T08:25:59.370Z,99.90
2022-10-01T08:28:31.172Z,99.90
2022-10-01T08:31:05.098Z,99.90
2022-10-01T08:33:36.967Z,99.90
2022-10-01T08:36:09.993Z,99.90
2022-10-01T08:38:44.173Z,99.90
2022-10-01T08:41:42.202Z,99.90
2022-10-01T08:44:17.294Z,99.90
2022-10-01T08:46:49.197Z,99.90
2022-10-01T08:49:22.802Z,99.90
2022-10-01T08:51:57.248Z,99.90
2022-10-01T08:54:32.292Z,99.90
2022-10-01T08:57:04.794Z,99.90
2022-10-01T08:59:39.514Z,99.90
2022-10-01T09:02:21.849Z,99.90
2022-10-01T09:04:58.921Z,99.90
2022-10-01T09:07:44.036Z,99.90
2022-10-01T09:10:26.781Z,99.90
2022-10-01T09:13:10.419Z,99.90
2022-10-01T09:15:44.089Z,99.90
2022-10-01T09:18:26.682Z,99.90
2022-10-01T09:20:58.780Z,99.90
2022-10-01T09:23:32.320Z,99.90
2022-10-01T09:26:04.000Z,99.90
2022-10-01T09:28:35.841Z,99.90
2022-10-01T09:31:24.762Z,99.90
2022-10-01T09:33:58.288Z,99.90
2022-10-01T09:36:34.576Z,99.90
2022-10-01T09:39:14.522Z,99.90
2022-10-01T09:41:46.196Z,99.90
2022-10-01T09:44:19.037Z,99.90
2022-10-01T09:46:50.821Z,99.90
2022-10-01T09:49:27.556Z,99.90
2022-10-01T09:52:01.130Z,99.90
2022-10-01T09:54:34.868Z,99.90
2022-10-01T09:57:08.232Z,99.90
2022-10-01T09:59:43.474Z,99.90
2022-10-01T10:02:17.712Z,99.90
2022-10-01T10:04:59.310Z,99.90
2022-10-01T10:07:30.970Z,99.90
2022-10-01T10:10:10.948Z,99.90
2022-10-01T10:15:18.048Z,99.90
2022-10-01T10:17:49.828Z,99.90
2022-10-01T10:20:25.319Z,99.90
2022-10-01T10:23:07.311Z,99.90
2022-10-01T10:25:40.324Z,99.90
2022-10-01T10:28:21.728Z,99.90
2022-10-01T10:30:54.418Z,99.90
2022-10-01T10:33:26.990Z,99.90
2022-10-01T10:36:00.261Z,99.90
2022-10-01T10:38:33.517Z,99.90
2022-10-01T10:41:06.587Z,99.90
2022-10-01T10:43:38.246Z,99.90
2022-10-01T10:46:09.980Z,99.90
2022-10-01T10:48:42.405Z,99.90
2022-10-01T10:51:14.066Z,99.90
2022-10-01T10:53:45.902Z,99.90
2022-10-01T10:56:20.382Z,99.90
2022-10-01T10:58:52.158Z,99.90
2022-10-01T11:01:28.781Z,99.90
2022-10-01T11:04:00.887Z,99.90
2022-10-01T11:06:32.841Z,99.90
2022-10-01T11:09:07.403Z,99.90
2022-10-01T11:11:45.970Z,26.20
2022-10-01T11:14:24.048Z,1.00
2022-10-01T11:17:08.265Z,1.00
2022-10-01T11:19:45.285Z,73.80
2022-10-01T11:22:30.827Z,55.80
2022-10-01T11:25:23.341Z,53.40
2022-10-01T11:28:01.638Z,99.90
2022-10-01T11:30:36.093Z,99.90
2022-10-01T11:33:10.691Z,99.90
2022-10-01T11:35:47.135Z,99.90
2022-10-01T11:38:41.627Z,99.90
2022-10-01T11:41:21.088Z,99.90
2022-10-01T11:43:55.670Z,99.90
2022-10-01T11:46:36.505Z,99.90
2022-10-01T11:49:35.059Z,99.90
2022-10-01T11:52:10.383Z,99.90
2022-10-01T11:54:48.211Z,99.90
2022-10-01T11:57:19.849Z,99.90
2022-10-01T11:59:55.183Z,99.90
2022-10-01T12:02:30.376Z,99.90
2022-10-01T12:05:04.556Z,99.90
2022-10-01T12:07:39.045Z,99.90
2022-10-01T12:10:16.193Z,99.90
2022-10-01T12:12:49.784Z,99.90
2022-10-01T12:15:24.947Z,99.90
2022-10-01T12:17:59.695Z,99.90
2022-10-01T12:20:32.900Z,99.90
2022-10-01T12:23:05.873Z,99.90
2022-10-01T12:25:40.903Z,99.90
2022-10-01T12:28:13.273Z,99.90
2022-10-01T12:30:49.692Z,99.90
2022-10-01T12:33:39.637Z,99.90
2022-10-01T12:36:13.988Z,99.90
2022-10-01T12:38:53.921Z,99.90
2022-10-01T12:41:31.063Z,99.90
2022-10-01T12:44:19.768Z,99.90
2022-10-01T12:46:59.667Z,99.90
2022-10-01T12:49:33.732Z,99.90
2022-10-01T12:52:08.821Z,99.90
2022-10-01T12:54:49.961Z,99.90
2022-10-01T12:57:37.603Z,99.90
2022-10-01T13:00:10.933Z,99.90
2022-10-01T13:03:21.950Z,99.90
2022-10-01T13:06:01.323Z,99.90
2022-10-01T13:08:40.601Z,99.90
2022-10-01T13:11:18.336Z,99.90
2022-10-01T13:13:50.113Z,99.90
2022-10-01T13:16:24.497Z,99.90
2022-10-01T13:19:00.792Z,99.90
2022-10-01T13:21:42.560Z,99.90
2022-10-01T13:24:16.144Z,99.90
2022-10-01T13:26:50.773Z,99.90
2022-10-01T13:29:30.264Z,99.90
2022-10-01T13:32:02.753Z,99.90
2022-10-01T13:34:37.813Z,99.90
2022-10-01T13:37:13.695Z,99.90
2022-10-01T13:39:45.932Z,99.90
2022-10-01T13:42:20.463Z,99.90
2022-10-01T13:44:53.822Z,99.90
2022-10-01T13:47:25.608Z,99.90
2022-10-01T13:50:00.041Z,99.90
2022-10-01T13:52:31.996Z,99.90
2022-10-01T13:55:04.076Z,99.90
2022-10-01T13:57:36.430Z,99.90
2022-10-01T14:00:21.093Z,99.90
2022-10-01T14:03:04.690Z,99.90
2022-10-01T14:05:38.184Z,99.90
2022-10-01T14:08:16.530Z,99.90
2022-10-01T14:10:50.941Z,99.90
2022-10-01T14:13:22.741Z,99.90
2022-10-01T14:15:54.453Z,99.90
2022-10-01T14:18:28.246Z,99.90
2022-10-01T14:21:06.178Z,99.90
2022-10-01T14:23:41.661Z,99.90
2022-10-01T14:26:15.568Z,99.90
2022-10-01T14:28:53.516Z,99.90
2022-10-01T14:31:30.829Z,99.90
2022-10-01T14:34:17.955Z,99.90
2022-10-01T14:36:51.516Z,99.90
2022-10-01T14:39:24.114Z,99.90
2022-10-01T14:41:56.832Z,99.90
2022-10-01T14:44:29.478Z,99.90
2022-10-01T14:47:10.917Z,99.90
2022-10-01T14:49:42.593Z,99.90
2022-10-01T14:52:19.935Z,99.90
2022-10-01T14:54:56.562Z,99.90
2022-10-01T14:57:30.913Z,99.90
2022-10-01T15:00:04.644Z,99.90
2022-10-01T15:02:43.994Z,99.90
2022-10-01T15:05:21.074Z,99.90
2022-10-01T15:07:54.087Z,99.90
2022-10-01T15:10:26.495Z,99.90
2022-10-01T15:12:58.165Z,99.90
2022-10-01T15:15:33.332Z,99.90
2022-10-01T15:18:05.063Z,99.90
2022-10-01T15:20:36.735Z,99.90
2022-10-01T15:23:11.032Z,99.90
2022-10-01T15:25:43.315Z,99.90
2022-10-01T15:28:15.102Z,99.90
2022-10-01T15:30:46.832Z,99.90
2022-10-01T15:33:21.582Z,99.90
2022-10-01T15:35:54.280Z,99.90
2022-10-01T15:38:27.629Z,99.90
2022-10-01T15:41:19.747Z,99.90
2022-10-01T15:43:51.888Z,99.90
2022-10-01T15:46:27.515Z,99.90
2022-10-01T15:49:11.665Z,99.90
2022-10-01T15:51:48.786Z,99.90
2022-10-01T15:54:21.800Z,99.90
2022-10-01T15:56:53.443Z,99.90
2022-10-01T15:59:25.092Z,99.90
2022-10-01T16:01:56.755Z,1.00
2022-10-01T16:04:28.420Z,1.00
2022-10-01T16:07:00.042Z,48.20
2022-10-01T16:09:33.028Z,88.10
2022-10-01T16:12:05.263Z,61.00
2022-10-01T16:14:37.504Z,97.00
2022-10-01T16:17:31.438Z,97.60
2022-10-01T16:20:32.169Z,51.50
2022-10-01T16:23:31.257Z,72.80
2022-10-01T16:26:05.036Z,59.40
2022-10-01T16:28:36.692Z,24.50
2022-10-01T16:31:08.373Z,91.00
2022-10-01T16:33:40.061Z,53.40
2022-10-01T16:36:14.318Z,90.70
2022-10-01T16:38:46.023Z,99.90
2022-10-01T16:41:20.288Z,83.00
2022-10-01T16:43:52.366Z,99.90
2022-10-01T16:46:24.146Z,99.90
2022-10-01T16:48:55.836Z,99.90
2022-10-01T16:51:27.479Z,99.90
2022-10-01T16:53:59.122Z,99.90
2022-10-01T16:56:32.124Z,99.90
2022-10-01T16:59:03.785Z,99.90
2022-10-01T17:01:35.468Z,99.90
2022-10-01T17:04:09.607Z,99.90
2022-10-01T17:06:41.238Z,99.90
2022-10-01T17:09:12.889Z,99.90
2022-10-01T17:11:45.873Z,99.90
2022-10-01T17:14:18.049Z,99.90
2022-10-01T17:16:49.720Z,99.90
2022-10-01T17:19:21.444Z,99.90
2022-10-01T17:21:53.079Z,99.90
2022-10-01T17:24:24.711Z,99.90
2022-10-01T17:26:57.691Z,99.90
2022-10-01T17:29:29.341Z,99.90
2022-10-01T17:32:01.115Z,99.90
2022-10-01T17:34:33.434Z,99.90
2022-10-01T17:37:05.082Z,99.90
2022-10-01T17:39:36.773Z,99.90
2022-10-01T17:42:09.760Z,99.90
2022-10-01T17:44:41.407Z,99.90
2022-10-01T17:47:13.057Z,99.90
2022-10-01T17:49:44.713Z,99.90
2022-10-01T17:52:16.421Z,99.90
2022-10-01T17:54:48.077Z,99.90
2022-10-01T17:57:21.123Z,99.90
2022-10-01T17:59:52.818Z,99.90
2022-10-01T18:02:41.120Z,99.90
2022-10-01T18:05:14.108Z,99.90
2022-10-01T18:07:45.744Z,99.90
2022-10-01T18:10:17.546Z,99.90
2022-10-01T18:12:50.534Z,99.90
2022-10-01T18:15:22.204Z,99.90
2022-10-01T18:18:34.002Z,99.90
2022-10-01T18:20:45.488Z,99.90
2022-10-01T18:23:17.121Z,99.90
2022-10-01T18:25:48.763Z,99.90
2022-10-01T18:28:21.785Z,99.90
2022-10-01T18:30:54.681Z,99.90
2022-10-01T18:33:26.372Z,99.90
2022-10-01T18:35:58.016Z,99.90
2022-10-01T18:38:30.149Z,99.90
2022-10-01T18:41:03.593Z,99.90
2022-10-01T18:43:36.801Z,99.90
2022-10-01T18:46:12.115Z,99.90
2022-10-01T18:49:05.885Z,99.90
2022-10-01T18:51:45.388Z,99.90
2022-10-01T18:54:52.415Z,99.90
2022-10-01T18:57:34.310Z,99.90
2022-10-01T19:00:11.449Z,99.90
2022-10-01T19:03:11.395Z,99.90
2022-10-01T19:06:03.862Z,99.90
2022-10-01T19:08:48.615Z,99.90
2022-10-01T19:11:24.075Z,99.90
2022-10-01T19:13:58.983Z,99.90
2022-10-01T19:16:39.107Z,99.90
2022-10-01T19:19:19.059Z,99.90
2022-10-01T19:21:54.845Z,99.90
2022-10-01T19:24:44.989Z,99.90
2022-10-01T19:27:22.192Z,99.90
2022-10-01T19:30:01.078Z,99.90
2022-10-01T19:32:39.580Z,99.90
2022-10-01T19:35:17.276Z,99.90
2022-10-01T19:37:51.385Z,99.90
2022-10-01T19:40:26.391Z,99.90
2022-10-01T19:43:01.873Z,99.90
2022-10-01T19:45:39.336Z,99.90
2022-10-01T19:48:16.787Z,99.90
2022-10-01T19:50:52.411Z,99.90
2022-10-01T19:53:26.163Z,99.90
2022-10-01T19:55:58.746Z,99.90
2022-10-01T19:58:31.012Z,99.90
2022-10-01T20:01:02.801Z,99.90
2022-10-01T20:03:37.063Z,99.90
2022-10-01T20:06:11.343Z,99.90
2022-10-01T20:08:45.461Z,99.90
2022-10-01T20:11:20.456Z,99.90
2022-10-01T20:14:21.554Z,99.90
2022-10-01T20:16:53.214Z,99.90
2022-10-01T20:19:27.660Z,99.90
2022-10-01T20:22:00.978Z,99.90
2022-10-01T20:24:41.076Z,99.90
2022-10-01T20:27:19.876Z,99.90
2022-10-01T20:29:53.772Z,99.90
2022-10-01T20:32:26.947Z,99.90
2022-10-01T20:35:09.756Z,99.90
2022-10-01T20:37:54.462Z,99.90
2022-10-01T20:40:28.080Z,99.90
2022-10-01T20:43:02.725Z,99.90
2022-10-01T20:45:34.753Z,99.90
2022-10-01T20:48:10.279Z,99.90
2022-10-01T20:50:44.766Z,99.90
2022-10-01T20:53:20.119Z,99.90
2022-10-01T20:55:54.263Z,99.90
2022-10-01T20:58:27.941Z,99.90
2022-10-01T21:01:03.443Z,99.90
2022-10-01T21:03:36.175Z,99.90
2022-10-01T21:06:10.958Z,99.90
2022-10-01T21:08:46.451Z,99.90
2022-10-01T21:11:22.845Z,99.90
2022-10-01T21:13:57.609Z,99.90
2022-10-01T21:17:00.066Z,99.90
2022-10-01T21:19:58.408Z,99.90
2022-10-01T21:22:37.743Z,99.90
2022-10-01T21:25:13.057Z,99.90
2022-10-01T21:27:53.150Z,99.90
2022-10-01T21:30:24.828Z,99.90
2022-10-01T21:33:05.888Z,99.90
2022-10-01T21:35:43.532Z,99.90
2022-10-01T21:38:28.119Z,99.90
2022-10-01T21:41:11.927Z,99.90
2022-10-01T21:43:56.582Z,99.90
2022-10-01T21:46:30.467Z,99.90
2022-10-01T21:49:06.116Z,99.90
2022-10-01T21:51:44.553Z,99.90
2022-10-01T21:54:30.068Z,99.90
2022-10-01T21:57:06.027Z,99.90
2022-10-01T21:59:46.825Z,99.90
